Time;durP1;ratioP1;P1;durP2;ratioP2;P2;SDS_P1;SDS_P2;PMS_P1;PMS_P2;Temp;Humidity;BMP_temperature;BMP_pressure;BME280_temperature;BME280_humidity;BME280_pressure;Samples;Min_cycle;Max_cycle;Signal;HPM_P1;HPM_P2
2023/02/15 00:01:08;;;;;;;;;;;;;;;;;;4389140;32;20285;-76
2023/02/15 00:03:33;;;;;;;;;;;;;;;;;;4390624;32;20353;-75
2023/02/15 00:05:58;;;;;;;;;;;;;;;;;;4387764;32;20269;-75
2023/02/15 00:08:23;;;;;;;;;;;;;;;;;;4392158;32;19934;-75
2023/02/15 00:10:48;;;;;;;;;;;;;;;;;;4391017;32;19980;-75
2023/02/15 00:13:13;;;;;;;;;;;;;;;;;;4389971;32;20742;-75
2023/02/15 00:15:39;;;;;;;;;;;;;;;;;;4390160;32;20002;-74
2023/02/15 00:18:04;;;;;;;;;;;;;;;;;;4389553;32;19938;-75
2023/02/15 00:20:29;;;;;;;;;;;;;;;;;;4392216;32;19938;-75
2023/02/15 00:22:54;;;;;;;;;;;;;;;;;;4390156;32;19934;-75
2023/02/15 00:25:19;;;;;;;;;;;;;;;;;;4392574;32;19972;-74
2023/02/15 00:27:44;;;;;;;;;;;;;;;;;;4391785;32;19945;-74
2023/02/15 00:30:09;;;;;;;;;;;;;;;;;;4388909;32;19964;-74
2023/02/15 00:32:34;;;;;;;;;;;;;;;;;;4391714;32;20298;-74
2023/02/15 00:34:59;;;;;;;;;;;;;;;;;;4391782;32;20083;-75
2023/02/15 00:37:25;;;;;;;;;;;;;;;;;;4390350;32;19974;-74
2023/02/15 00:39:50;;;;;;;;;;;;;;;;;;4389701;32;19960;-75
2023/02/15 00:42:15;;;;;;;;;;;;;;;;;;4391068;32;19952;-75
2023/02/15 00:44:40;;;;;;;;;;;;;;;;;;4389437;32;19952;-75
2023/02/15 00:47:05;;;;;;;;;;;;;;;;;;4389048;32;19934;-75
2023/02/15 00:49:30;;;;;;;;;;;;;;;;;;4391167;32;19942;-75
2023/02/15 00:51:55;;;;;;;;;;;;;;;;;;4389151;32;19941;-75
2023/02/15 00:54:20;;;;;;;;;;;;;;;;;;4389753;32;19942;-75
2023/02/15 00:56:45;;;;;;;;;;;;;;;;;;4389878;32;19941;-75
2023/02/15 00:59:10;;;;;;;;;;;;;;;;;;4389207;32;20519;-74
2023/02/15 01:01:35;;;;;;;;;;;;;;;;;;4388381;32;20031;-74
2023/02/15 01:04:01;;;;;;;;;;;;;;;;;;4390714;32;19969;-75
2023/02/15 01:06:26;;;;;;;;;;;;;;;;;;4392681;32;19938;-75
2023/02/15 01:08:51;;;;;;;;;;;;;;;;;;4393680;32;20380;-75
2023/02/15 01:11:21;;;;;;;;;;;;;;;;;;4391940;32;19953;-75
2023/02/15 01:13:46;;;;;;;;;;;;;;;;;;4392034;32;19934;-74
2023/02/15 01:16:11;;;;;;;;;;;;;;;;;;4392842;32;19999;-75
2023/02/15 01:18:36;;;;;;;;;;;;;;;;;;4393977;32;19934;-75
2023/02/15 01:21:02;;;;;;;;;;;;;;;;;;4392766;32;20359;-75
2023/02/15 01:23:27;;;;;;;;;;;;;;;;;;4392300;32;19967;-74
2023/02/15 01:25:52;;;;;;;;;;;;;;;;;;4393111;32;19938;-75
2023/02/15 01:28:17;;;;;;;;;;;;;;;;;;4391918;32;19948;-75
2023/02/15 01:30:42;;;;;;;;;;;;;;;;;;4393205;32;19977;-75
2023/02/15 01:33:07;;;;;;;;;;;;;;;;;;4393074;32;19952;-75
2023/02/15 01:35:32;;;;;;;;;;;;;;;;;;4391909;32;19942;-75
2023/02/15 01:37:57;;;;;;;;;;;;;;;;;;4392510;32;19976;-75
2023/02/15 01:40:22;;;;;;;;;;;;;;;;;;4392078;32;19941;-75
2023/02/15 01:42:48;;;;;;;;;;;;;;;;;;4393265;32;19934;-74
2023/02/15 01:45:13;;;;;;;;;;;;;;;;;;4392488;32;19938;-75
2023/02/15 01:47:38;;;;;;;;;;;;;;;;;;4391356;32;19938;-76
2023/02/15 01:50:03;;;;;;;;;;;;;;;;;;4391857;32;20311;-75
2023/02/15 01:52:28;;;;;;;;;;;;;;;;;;4391604;32;20280;-75
2023/02/15 01:54:53;;;;;;;;;;;;;;;;;;4391995;32;19933;-74
2023/02/15 01:57:18;;;;;;;;;;;;;;;;;;4393749;32;20001;-76
2023/02/15 01:59:43;;;;;;;;;;;;;;;;;;4391367;32;19938;-75
2023/02/15 02:02:08;;;;;;;;;;;;;;;;;;4391936;32;19960;-74
2023/02/15 02:04:34;;;;;;;;;;;;;;;;;;4391639;32;19942;-74
2023/02/15 02:06:59;;;;;;;;;;;;;;;;;;4391552;32;20288;-74
2023/02/15 02:09:24;;;;;;;;;;;;;;;;;;4392250;32;20334;-74
2023/02/15 02:11:49;;;;;;;;;;;;;;;;;;4391828;32;19938;-74
2023/02/15 02:14:14;;;;;;;;;;;;;;;;;;4390907;32;19934;-75
2023/02/15 02:16:39;;;;;;;;;;;;;;;;;;4393646;32;19934;-75
2023/02/15 02:19:04;;;;;;;;;;;;;;;;;;4391496;32;19948;-76
2023/02/15 02:21:29;;;;;;;;;;;;;;;;;;4392161;32;19942;-74
2023/02/15 02:23:55;;;;;;;;;;;;;;;;;;4391729;32;20293;-75
2023/02/15 02:26:20;;;;;;;;;;;;;;;;;;4391661;32;19946;-76
2023/02/15 02:28:45;;;;;;;;;;;;;;;;;;4391647;32;19934;-75
2023/02/15 02:31:10;;;;;;;;;;;;;;;;;;4389785;32;19945;-74
2023/02/15 02:33:35;;;;;;;;;;;;;;;;;;4391549;32;19934;-75
2023/02/15 02:36:00;;;;;;;;;;;;;;;;;;4389927;32;19938;-75
2023/02/15 02:38:26;;;;;;;;;;;;;;;;;;4392297;32;19941;-75
2023/02/15 02:40:51;;;;;;;;;;;;;;;;;;4391018;32;19979;-75
2023/02/15 02:43:16;;;;;;;;;;;;;;;;;;4390659;32;20260;-76
2023/02/15 02:45:41;;;;;;;;;;;;;;;;;;4392108;32;19952;-75
2023/02/15 02:48:06;;;;;;;;;;;;;;;;;;4391779;32;19945;-75
2023/02/15 02:50:31;;;;;;;;;;;;;;;;;;4391029;32;19976;-75
2023/02/15 02:52:56;;;;;;;;;;;;;;;;;;4391933;32;19934;-74
2023/02/15 02:55:21;;;;;;;;;;;;;;;;;;4390111;32;20022;-75
2023/02/15 02:57:46;;;;;;;;;;;;;;;;;;4389230;32;19946;-75
2023/02/15 03:00:11;;;;;;;;;;;;;;;;;;4390576;32;20267;-75
2023/02/15 03:02:36;;;;;;;;;;;;;;;;;;4391570;32;19942;-75
2023/02/15 03:05:03;;;;;;;;;;;;;;;;;;4390178;32;19961;-75
2023/02/15 03:07:28;;;;;;;;;;;;;;;;;;4389328;32;19934;-74
2023/02/15 03:09:53;;;;;;;;;;;;;;;;;;4390781;32;20224;-75
2023/02/15 03:12:18;;;;;;;;;;;;;;;;;;4391212;32;19934;-75
2023/02/15 03:14:43;;;;;;;;;;;;;;;;;;4391633;32;19975;-74
2023/02/15 03:17:08;;;;;;;;;;;;;;;;;;4394089;32;19946;-74
2023/02/15 03:19:34;;;;;;;;;;;;;;;;;;4390693;32;19964;-74
2023/02/15 03:22:03;;;;;;;;;;;;;;;;;;4389981;32;20316;-75
2023/02/15 03:24:28;;;;;;;;;;;;;;;;;;4392203;32;20349;-74
2023/02/15 03:26:53;;;;;;;;;;;;;;;;;;4391634;32;20512;-74
2023/02/15 03:29:18;;;;;;;;;;;;;;;;;;4389732;32;19954;-75
2023/02/15 03:31:43;;;;;;;;;;;;;;;;;;4389222;32;19938;-77
2023/02/15 03:34:08;;;;;;;;;;;;;;;;;;4391461;32;19982;-75
2023/02/15 03:36:33;;;;;;;;;;;;;;;;;;4390522;32;19942;-76
2023/02/15 03:38:59;;;;;;;;;;;;;;;;;;4390254;32;20001;-75
2023/02/15 03:41:24;;;;;;;;;;;;;;;;;;4390131;32;19938;-74
2023/02/15 03:43:49;;;;;;;;;;;;;;;;;;4390833;32;19938;-74
2023/02/15 03:46:14;;;;;;;;;;;;;;;;;;4390483;32;20338;-75
2023/02/15 03:48:40;;;;;;;;;;;;;;;;;;4390584;32;19930;-75
2023/02/15 03:53:49;;;;;;;;;;;;;;;;;;4390583;32;19944;-75
2023/02/15 03:56:14;;;;;;;;;;;;;;;;;;4389730;32;20332;-75
2023/02/15 04:04:07;;;;;;;;;;;;;;;;;;4390817;32;19944;-74
2023/02/15 04:06:32;;;;;;;;;;;;;;;;;;4389183;32;19954;-75
2023/02/15 04:11:41;;;;;;;;;;;;;;;;;;4390347;32;19988;-75
2023/02/15 04:16:50;;;;;;;;;;;;;;;;;;4389590;32;20300;-75
2023/02/15 04:27:27;;;;;;;;;;;;;;;;;;4391052;32;19936;-74
2023/02/15 04:29:52;;;;;;;;;;;;;;;;;;4388608;32;19987;-74
2023/02/15 04:32:17;;;;;;;;;;;;;;;;;;4389780;32;19948;-74
2023/02/15 04:34:42;;;;;;;;;;;;;;;;;;4390601;32;19938;-75
2023/02/15 04:37:07;;;;;;;;;;;;;;;;;;4390476;32;19952;-74
2023/02/15 04:39:32;;;;;;;;;;;;;;;;;;4393774;32;20009;-74
2023/02/15 04:41:57;;;;;;;;;;;;;;;;;;4399000;32;19937;-75
2023/02/15 04:44:22;;;;;;;;;;;;;;;;;;4394963;32;19945;-75
2023/02/15 04:46:47;;;;;;;;;;;;;;;;;;4393455;32;19986;-75
2023/02/15 04:49:12;;;;;;;;;;;;;;;;;;4392523;32;19989;-75
2023/02/15 04:51:38;;;;;;;;;;;;;;;;;;4393095;32;19946;-74
2023/02/15 04:54:03;;;;;;;;;;;;;;;;;;4392942;32;19948;-74
2023/02/15 04:56:29;;;;;;;;;;;;;;;;;;4393106;32;19938;-76
2023/02/15 04:58:54;;;;;;;;;;;;;;;;;;4391661;32;19953;-74
2023/02/15 05:01:19;;;;;;;;;;;;;;;;;;4391933;32;19948;-74
2023/02/15 05:03:45;;;;;;;;;;;;;;;;;;4394200;32;19938;-74
2023/02/15 05:06:10;;;;;;;;;;;;;;;;;;4392627;32;20004;-74
2023/02/15 05:08:35;;;;;;;;;;;;;;;;;;4391951;32;19961;-73
2023/02/15 05:11:00;;;;;;;;;;;;;;;;;;4392842;32;19944;-74
2023/02/15 05:13:25;;;;;;;;;;;;;;;;;;4393061;32;19946;-74
2023/02/15 05:15:50;;;;;;;;;;;;;;;;;;4392626;32;19942;-74
2023/02/15 05:18:15;;;;;;;;;;;;;;;;;;4391533;32;19942;-74
2023/02/15 05:20:40;;;;;;;;;;;;;;;;;;4392676;32;19944;-74
2023/02/15 05:23:05;;;;;;;;;;;;;;;;;;4393441;32;19975;-74
2023/02/15 05:28:21;;;;;;;;;;;;;;;;;;4392428;32;19996;-74
2023/02/15 05:30:46;;;;;;;;;;;;;;;;;;4393998;32;19938;-75
2023/02/15 05:33:11;;;;;;;;;;;;;;;;;;4392226;32;20044;-75
2023/02/15 05:35:36;;;;;;;;;;;;;;;;;;4392186;32;20331;-74
2023/02/15 05:38:01;;;;;;;;;;;;;;;;;;4392707;32;19970;-75
2023/02/15 05:40:26;;;;;;;;;;;;;;;;;;4392514;32;20371;-75
2023/02/15 05:42:51;;;;;;;;;;;;;;;;;;4393375;32;19977;-74
2023/02/15 05:45:16;;;;;;;;;;;;;;;;;;4392357;32;19957;-74
2023/02/15 05:47:41;;;;;;;;;;;;;;;;;;4391861;32;20003;-74
2023/02/15 05:50:06;;;;;;;;;;;;;;;;;;4391273;32;20300;-75
2023/02/15 05:52:31;;;;;;;;;;;;;;;;;;4392175;32;20002;-74
2023/02/15 05:54:57;;;;;;;;;;;;;;;;;;4392146;32;19997;-75
2023/02/15 05:57:23;;;;;;;;;;;;;;;;;;4391506;32;20304;-75
2023/02/15 05:59:48;;;;;;;;;;;;;;;;;;4393338;32;19942;-75
2023/02/15 06:02:13;;;;;;;;;;;;;;;;;;4392181;32;19942;-74
2023/02/15 06:04:38;;;;;;;;;;;;;;;;;;4391282;32;19960;-75
2023/02/15 06:07:03;;;;;;;;;;;;;;;;;;4392390;32;19990;-73
2023/02/15 06:09:28;;;;;;;;;;;;;;;;;;4392943;32;19942;-74
2023/02/15 06:11:53;;;;;;;;;;;;;;;;;;4388004;32;20355;-74
2023/02/15 06:14:18;;;;;;;;;;;;;;;;;;4383661;32;19938;-73
2023/02/15 06:16:43;;;;;;;;;;;;;;;;;;4383819;32;19971;-74
2023/02/15 06:19:08;;;;;;;;;;;;;;;;;;4384898;32;19938;-73
2023/02/15 06:21:33;;;;;;;;;;;;;;;;;;4392652;32;19971;-74
2023/02/15 06:23:58;;;;;;;;;;;;;;;;;;4385100;32;19954;-73
2023/02/15 06:26:24;;;;;;;;;;;;;;;;;;4390773;32;19953;-75
2023/02/15 06:28:49;;;;;;;;;;;;;;;;;;4381018;32;20272;-74
2023/02/15 06:31:14;;;;;;;;;;;;;;;;;;4376712;32;19934;-75
2023/02/15 06:33:39;;;;;;;;;;;;;;;;;;4374989;32;19966;-74
2023/02/15 06:36:04;;;;;;;;;;;;;;;;;;4383897;32;19948;-74
2023/02/15 06:38:29;;;;;;;;;;;;;;;;;;4391467;32;19941;-75
2023/02/15 06:40:54;;;;;;;;;;;;;;;;;;4391290;32;20311;-75
2023/02/15 06:43:19;;;;;;;;;;;;;;;;;;4389368;32;20403;-74
2023/02/15 06:45:44;;;;;;;;;;;;;;;;;;4390328;32;19956;-75
2023/02/15 06:48:10;;;;;;;;;;;;;;;;;;4389719;32;19942;-74
2023/02/15 06:50:36;;;;;;;;;;;;;;;;;;4390986;32;19953;-74
2023/02/15 06:53:01;;;;;;;;;;;;;;;;;;4391423;32;19949;-74
2023/02/15 06:55:26;;;;;;;;;;;;;;;;;;4390546;32;19937;-73
2023/02/15 06:57:51;;;;;;;;;;;;;;;;;;4391601;32;20021;-73
2023/02/15 07:00:17;;;;;;;;;;;;;;;;;;4391330;32;20275;-74
2023/02/15 07:02:42;;;;;;;;;;;;;;;;;;4391014;32;19948;-75
2023/02/15 07:05:07;;;;;;;;;;;;;;;;;;4390259;32;19953;-74
2023/02/15 07:07:32;;;;;;;;;;;;;;;;;;4390715;32;19985;-74
2023/02/15 07:09:57;;;;;;;;;;;;;;;;;;4390332;32;19934;-74
2023/02/15 07:12:41;;;;;;;;;;;;;;;;;;4389307;32;19946;-73
2023/02/15 07:15:07;;;;;;;;;;;;;;;;;;4389156;32;20353;-74
2023/02/15 07:17:32;;;;;;;;;;;;;;;;;;4387336;32;19965;-75
2023/02/15 07:19:57;;;;;;;;;;;;;;;;;;4388961;32;20043;-75
2023/02/15 07:22:22;;;;;;;;;;;;;;;;;;4389742;32;19979;-75
2023/02/15 07:24:48;;;;;;;;;;;;;;;;;;4388774;32;20346;-74
2023/02/15 07:27:14;;;;;;;;;;;;;;;;;;4387799;32;20324;-75
2023/02/15 07:29:39;;;;;;;;;;;;;;;;;;4390391;32;20434;-74
2023/02/15 07:32:04;;;;;;;;;;;;;;;;;;4389015;32;19945;-75
2023/02/15 07:34:29;;;;;;;;;;;;;;;;;;4393283;32;19934;-75
2023/02/15 07:36:54;;;;;;;;;;;;;;;;;;4392764;32;19938;-74
2023/02/15 07:39:19;;;;;;;;;;;;;;;;;;4389429;32;19934;-75
2023/02/15 07:41:44;;;;;;;;;;;;;;;;;;4388494;32;19958;-75
2023/02/15 07:44:10;;;;;;;;;;;;;;;;;;4388997;32;19976;-76
2023/02/15 07:46:35;;;;;;;;;;;;;;;;;;4387567;32;19977;-76
2023/02/15 07:49:00;;;;;;;;;;;;;;;;;;4388761;32;19980;-75
2023/02/15 07:51:25;;;;;;;;;;;;;;;;;;4389485;32;19973;-75
2023/02/15 07:53:51;;;;;;;;;;;;;;;;;;4388929;32;19974;-75
2023/02/15 07:56:16;;;;;;;;;;;;;;;;;;4389006;32;20297;-75
2023/02/15 07:58:50;;;;;;;;;;;;;;;;;;4389806;32;19977;-75
2023/02/15 08:01:15;;;;;;;;;;;;;;;;;;4389240;32;19973;-75
2023/02/15 08:03:40;;;;;;;;;;;;;;;;;;4389230;32;19980;-76
2023/02/15 08:06:05;;;;;;;;;;;;;;;;;;4387086;32;20012;-76
2023/02/15 08:08:30;;;;;;;;;;;;;;;;;;4387801;32;19969;-76
2023/02/15 08:13:53;;;;;;;;;;;;;;;;;;4391157;32;19965;-75
2023/02/15 08:16:18;;;;;;;;;;;;;;;;;;4393205;32;19964;-75
2023/02/15 08:18:43;;;;;;;;;;;;;;;;;;4393290;32;19961;-74
2023/02/15 08:21:08;;;;;;;;;;;;;;;;;;4392271;32;20365;-75
2023/02/15 08:23:33;;;;;;;;;;;;;;;;;;4393554;32;19938;-75
2023/02/15 08:25:58;;;;;;;;;;;;;;;;;;4392823;32;20000;-75
2023/02/15 08:28:23;;;;;;;;;;;;;;;;;;4393496;32;19942;-75
2023/02/15 08:30:49;;;;;;;;;;;;;;;;;;4393748;32;19948;-74
2023/02/15 08:33:14;;;;;;;;;;;;;;;;;;4393965;32;20003;-75
2023/02/15 08:35:39;;;;;;;;;;;;;;;;;;4395045;32;20284;-75
2023/02/15 08:38:04;;;;;;;;;;;;;;;;;;4393231;32;19938;-74
2023/02/15 08:40:29;;;;;;;;;;;;;;;;;;4391696;32;19938;-73
2023/02/15 08:42:54;;;;;;;;;;;;;;;;;;4392709;32;19995;-74
2023/02/15 08:45:19;;;;;;;;;;;;;;;;;;4393179;32;19967;-75
2023/02/15 08:47:44;;;;;;;;;;;;;;;;;;4392873;32;20051;-74
2023/02/15 08:50:09;;;;;;;;;;;;;;;;;;4392667;32;20331;-75
2023/02/15 08:52:34;;;;;;;;;;;;;;;;;;4393083;32;20325;-74
2023/02/15 08:54:59;;;;;;;;;;;;;;;;;;4391583;32;19991;-75
2023/02/15 08:57:25;;;;;;;;;;;;;;;;;;4392962;32;19933;-75
2023/02/15 08:59:50;;;;;;;;;;;;;;;;;;4392013;32;19996;-75
2023/02/15 09:02:15;;;;;;;;;;;;;;;;;;4395806;32;20311;-74
2023/02/15 09:04:40;;;;;;;;;;;;;;;;;;4392946;32;19933;-75
2023/02/15 09:07:06;;;;;;;;;;;;;;;;;;4392911;32;20350;-75
2023/02/15 09:09:31;;;;;;;;;;;;;;;;;;4392827;32;19965;-75
2023/02/15 09:11:56;;;;;;;;;;;;;;;;;;4392109;32;20288;-75
2023/02/15 09:14:23;;;;;;;;;;;;;;;;;;4390996;32;20003;-74
2023/02/15 09:16:49;;;;;;;;;;;;;;;;;;4392234;32;19949;-75
2023/02/15 09:19:14;;;;;;;;;;;;;;;;;;4392416;32;19945;-75
2023/02/15 09:21:39;;;;;;;;;;;;;;;;;;4394031;32;19974;-75
2023/02/15 09:24:04;;;;;;;;;;;;;;;;;;4392707;32;19968;-75
2023/02/15 09:26:30;;;;;;;;;;;;;;;;;;4392864;32;19956;-76
2023/02/15 09:28:58;;;;;;;;;;;;;;;;;;4394063;32;19933;-77
2023/02/15 09:31:23;;;;;;;;;;;;;;;;;;4391447;32;19937;-77
2023/02/15 09:33:48;;;;;;;;;;;;;;;;;;4392183;32;19972;-76
2023/02/15 09:36:13;;;;;;;;;;;;;;;;;;4393765;32;19946;-76
2023/02/15 09:38:39;;;;;;;;;;;;;;;;;;4390963;32;19946;-76
2023/02/15 09:41:04;;;;;;;;;;;;;;;;;;4392188;32;19943;-75
2023/02/15 09:43:29;;;;;;;;;;;;;;;;;;4392430;32;19941;-76
2023/02/15 09:45:54;;;;;;;;;;;;;;;;;;4392129;32;20280;-76
2023/02/15 09:48:19;;;;;;;;;;;;;;;;;;4390483;32;19938;-75
2023/02/15 09:50:46;;;;;;;;;;;;;;;;;;4392076;32;19938;-75
2023/02/15 09:53:12;;;;;;;;;;;;;;;;;;4390761;32;19973;-75
2023/02/15 09:55:37;;;;;;;;;;;;;;;;;;4393768;32;19933;-75
2023/02/15 09:58:02;;;;;;;;;;;;;;;;;;4391803;32;20000;-75
2023/02/15 10:00:28;;;;;;;;;;;;;;;;;;4391912;32;20279;-74
2023/02/15 10:02:54;;;;;;;;;;;;;;;;;;4390221;32;19930;-75
2023/02/15 10:05:19;;;;;;;;;;;;;;;;;;4391526;32;20003;-75
2023/02/15 10:07:44;;;;;;;;;;;;;;;;;;4390944;32;19977;-74
2023/02/15 10:10:09;;;;;;;;;;;;;;;;;;4391714;32;19996;-75
2023/02/15 10:12:34;;;;;;;;;;;;;;;;;;4391824;32;19949;-75
2023/02/15 10:15:00;;;;;;;;;;;;;;;;;;4391199;32;19956;-75
2023/02/15 10:17:25;;;;;;;;;;;;;;;;;;4391422;32;19945;-75
2023/02/15 10:19:50;;;;;;;;;;;;;;;;;;4391328;32;19988;-74
2023/02/15 10:22:15;;;;;;;;;;;;;;;;;;4390239;32;20020;-76
2023/02/15 10:24:41;;;;;;;;;;;;;;;;;;4393501;32;19938;-76
2023/02/15 10:27:06;;;;;;;;;;;;;;;;;;4391440;32;19964;-74
2023/02/15 10:29:31;;;;;;;;;;;;;;;;;;4390424;32;20002;-74
2023/02/15 10:31:56;;;;;;;;;;;;;;;;;;4391592;32;20296;-74
2023/02/15 10:34:21;;;;;;;;;;;;;;;;;;4390967;32;19968;-75
2023/02/15 10:36:47;;;;;;;;;;;;;;;;;;4391676;32;19933;-74
2023/02/15 10:39:12;;;;;;;;;;;;;;;;;;4392749;32;19993;-75
2023/02/15 10:41:37;;;;;;;;;;;;;;;;;;4391846;32;19934;-76
2023/02/15 10:44:02;;;;;;;;;;;;;;;;;;4392920;32;19933;-73
2023/02/15 10:46:27;;;;;;;;;;;;;;;;;;4390737;32;19951;-74
2023/02/15 10:48:52;;;;;;;;;;;;;;;;;;4391233;32;19977;-73
2023/02/15 10:51:17;;;;;;;;;;;;;;;;;;4391299;32;19937;-75
2023/02/15 10:53:42;;;;;;;;;;;;;;;;;;4390984;32;19952;-74
2023/02/15 10:56:08;;;;;;;;;;;;;;;;;;4391976;32;19997;-75
2023/02/15 10:58:33;;;;;;;;;;;;;;;;;;4391445;32;19988;-75
2023/02/15 11:00:59;;;;;;;;;;;;;;;;;;4389776;32;20339;-74
2023/02/15 11:03:24;;;;;;;;;;;;;;;;;;4391126;32;19941;-75
2023/02/15 11:05:50;;;;;;;;;;;;;;;;;;4390402;32;19942;-74
2023/02/15 11:08:15;;;;;;;;;;;;;;;;;;4391588;32;19949;-74
2023/02/15 11:10:40;;;;;;;;;;;;;;;;;;4391047;32;19941;-74
2023/02/15 11:13:05;;;;;;;;;;;;;;;;;;4390519;32;20012;-74
2023/02/15 11:15:30;;;;;;;;;;;;;;;;;;4389637;32;19933;-74
2023/02/15 11:17:55;;;;;;;;;;;;;;;;;;4392598;32;19964;-74
2023/02/15 11:20:20;;;;;;;;;;;;;;;;;;4390410;32;19968;-74
2023/02/15 11:22:45;;;;;;;;;;;;;;;;;;4391115;32;20296;-75
2023/02/15 11:25:11;;;;;;;;;;;;;;;;;;4389884;32;20323;-75
2023/02/15 11:27:36;;;;;;;;;;;;;;;;;;4391903;32;19945;-74
2023/02/15 11:30:01;;;;;;;;;;;;;;;;;;4389088;32;19956;-74
2023/02/15 11:32:26;;;;;;;;;;;;;;;;;;4390593;32;19938;-75
2023/02/15 11:34:51;;;;;;;;;;;;;;;;;;4390567;32;20275;-74
2023/02/15 11:37:16;;;;;;;;;;;;;;;;;;4391164;32;19942;-74
2023/02/15 11:39:41;;;;;;;;;;;;;;;;;;4389721;32;19979;-75
2023/02/15 11:42:06;;;;;;;;;;;;;;;;;;4391234;32;20327;-75
2023/02/15 11:44:32;;;;;;;;;;;;;;;;;;4391079;32;19976;-75
2023/02/15 11:46:57;;;;;;;;;;;;;;;;;;4391478;32;19972;-75
2023/02/15 11:49:23;;;;;;;;;;;;;;;;;;4390896;32;20028;-75
2023/02/15 11:51:50;;;;;;;;;;;;;;;;;;4389231;32;19930;-76
2023/02/15 11:54:15;;;;;;;;;;;;;;;;;;4390463;32;19946;-74
2023/02/15 11:56:40;;;;;;;;;;;;;;;;;;4389127;32;20013;-75
2023/02/15 11:59:07;;;;;;;;;;;;;;;;;;4389195;32;19938;-75
2023/02/15 12:01:32;;;;;;;;;;;;;;;;;;4389297;32;20005;-74
2023/02/15 12:03:57;;;;;;;;;;;;;;;;;;4391174;32;19995;-75
2023/02/15 12:06:22;;;;;;;;;;;;;;;;;;4388881;32;19973;-75
2023/02/15 12:08:47;;;;;;;;;;;;;;;;;;4390101;32;19977;-74
2023/02/15 12:11:12;;;;;;;;;;;;;;;;;;4388978;32;19979;-75
2023/02/15 12:13:38;;;;;;;;;;;;;;;;;;4388522;32;20327;-74
2023/02/15 12:16:03;;;;;;;;;;;;;;;;;;4389307;32;20287;-75
2023/02/15 12:18:28;;;;;;;;;;;;;;;;;;4390976;32;19934;-75
2023/02/15 12:20:53;;;;;;;;;;;;;;;;;;4389011;32;19938;-74
2023/02/15 12:23:18;;;;;;;;;;;;;;;;;;4389772;32;19941;-75
2023/02/15 12:25:43;;;;;;;;;;;;;;;;;;4391510;32;19957;-73
2023/02/15 12:28:08;;;;;;;;;;;;;;;;;;4390900;32;19983;-75
2023/02/15 12:30:34;;;;;;;;;;;;;;;;;;4388591;32;20328;-75
2023/02/15 12:33:00;;;;;;;;;;;;;;;;;;4390700;32;19938;-73
2023/02/15 12:35:25;;;;;;;;;;;;;;;;;;4388462;32;19975;-74
2023/02/15 12:37:50;;;;;;;;;;;;;;;;;;4389677;32;20323;-75
2023/02/15 12:40:15;;;;;;;;;;;;;;;;;;4389162;32;19942;-75
2023/02/15 12:42:40;;;;;;;;;;;;;;;;;;4389717;32;19958;-74
2023/02/15 12:45:05;;;;;;;;;;;;;;;;;;4391001;32;19938;-74
2023/02/15 12:47:31;;;;;;;;;;;;;;;;;;4388074;32;19958;-74
2023/02/15 12:49:56;;;;;;;;;;;;;;;;;;4387890;32;19948;-73
2023/02/15 12:52:21;;;;;;;;;;;;;;;;;;4389686;32;19946;-74
2023/02/15 12:54:46;;;;;;;;;;;;;;;;;;4388595;32;20271;-73
2023/02/15 12:57:11;;;;;;;;;;;;;;;;;;4390175;32;20292;-74
2023/02/15 12:59:37;;;;;;;;;;;;;;;;;;4395671;32;19933;-73
2023/02/15 13:02:02;;;;;;;;;;;;;;;;;;4395791;32;19953;-74
2023/02/15 13:04:27;;;;;;;;;;;;;;;;;;4392830;32;19988;-74
2023/02/15 13:06:53;;;;;;;;;;;;;;;;;;4391077;32;19953;-75
2023/02/15 13:09:18;;;;;;;;;;;;;;;;;;4388495;32;20009;-75
2023/02/15 13:11:43;;;;;;;;;;;;;;;;;;4388209;32;19945;-75
2023/02/15 13:14:08;;;;;;;;;;;;;;;;;;4388425;32;19997;-75
2023/02/15 13:16:33;;;;;;;;;;;;;;;;;;4377439;32;19973;-75
2023/02/15 13:18:58;;;;;;;;;;;;;;;;;;4377592;32;19939;-74
2023/02/15 13:21:23;;;;;;;;;;;;;;;;;;4377320;32;19934;-74
2023/02/15 13:23:48;;;;;;;;;;;;;;;;;;4377102;32;19933;-74
2023/02/15 13:26:13;;;;;;;;;;;;;;;;;;4377767;32;19960;-74
2023/02/15 13:28:39;;;;;;;;;;;;;;;;;;4377212;32;20308;-74
2023/02/15 13:31:04;;;;;;;;;;;;;;;;;;4378552;32;20021;-74
2023/02/15 13:33:29;;;;;;;;;;;;;;;;;;4392200;32;19941;-74
2023/02/15 13:35:54;;;;;;;;;;;;;;;;;;4392196;32;20334;-75
2023/02/15 13:38:23;;;;;;;;;;;;;;;;;;4392283;32;19937;-74
2023/02/15 13:40:48;;;;;;;;;;;;;;;;;;4390660;32;19938;-75
2023/02/15 13:43:13;;;;;;;;;;;;;;;;;;4391987;32;20377;-74
2023/02/15 13:45:38;;;;;;;;;;;;;;;;;;4390209;32;19960;-74
2023/02/15 13:48:03;;;;;;;;;;;;;;;;;;4392110;32;19999;-73
2023/02/15 13:50:29;;;;;;;;;;;;;;;;;;4391752;32;19951;-74
2023/02/15 13:52:54;;;;;;;;;;;;;;;;;;4391677;32;20350;-74
2023/02/15 13:55:19;;;;;;;;;;;;;;;;;;4390425;32;20299;-76
2023/02/15 13:57:44;;;;;;;;;;;;;;;;;;4391526;32;20365;-76
2023/02/15 14:00:09;;;;;;;;;;;;;;;;;;4390965;32;19957;-74
2023/02/15 14:02:34;;;;;;;;;;;;;;;;;;4390404;32;19961;-75
2023/02/15 14:04:59;;;;;;;;;;;;;;;;;;4391091;32;19949;-74
2023/02/15 14:07:24;;;;;;;;;;;;;;;;;;4392126;32;19950;-74
2023/02/15 14:09:50;;;;;;;;;;;;;;;;;;4389797;32;19949;-75
2023/02/15 14:12:15;;;;;;;;;;;;;;;;;;4390016;32;19964;-74
2023/02/15 14:14:40;;;;;;;;;;;;;;;;;;4391847;32;20315;-75
2023/02/15 14:17:05;;;;;;;;;;;;;;;;;;4390085;32;20020;-74
2023/02/15 14:19:30;;;;;;;;;;;;;;;;;;4391244;32;20287;-74
2023/02/15 14:21:55;;;;;;;;;;;;;;;;;;4391291;32;19938;-75
2023/02/15 14:24:20;;;;;;;;;;;;;;;;;;4390699;32;19956;-74
2023/02/15 14:26:45;;;;;;;;;;;;;;;;;;4390086;32;19938;-74
2023/02/15 14:29:11;;;;;;;;;;;;;;;;;;4390485;32;20009;-73
2023/02/15 14:31:40;;;;;;;;;;;;;;;;;;4392331;32;19978;-74
2023/02/15 14:34:06;;;;;;;;;;;;;;;;;;4392834;32;19976;-75
2023/02/15 14:36:31;;;;;;;;;;;;;;;;;;4391656;32;19942;-73
2023/02/15 14:38:56;;;;;;;;;;;;;;;;;;4392539;32;19937;-74
2023/02/15 14:41:21;;;;;;;;;;;;;;;;;;4390006;32;19973;-73
2023/02/15 14:43:46;;;;;;;;;;;;;;;;;;4387655;32;19985;-74
2023/02/15 14:46:12;;;;;;;;;;;;;;;;;;4376213;32;19970;-72
2023/02/15 14:48:37;;;;;;;;;;;;;;;;;;4385206;32;19975;-73
2023/02/15 14:51:02;;;;;;;;;;;;;;;;;;4388205;32;20000;-74
2023/02/15 14:53:27;;;;;;;;;;;;;;;;;;4392316;32;19956;-73
2023/02/15 14:55:52;;;;;;;;;;;;;;;;;;4391257;32;19995;-74
2023/02/15 14:58:17;;;;;;;;;;;;;;;;;;4389711;32;19945;-73
2023/02/15 15:00:42;;;;;;;;;;;;;;;;;;4391979;32;19958;-74
2023/02/15 15:03:08;;;;;;;;;;;;;;;;;;4390724;32;19985;-74
2023/02/15 15:05:33;;;;;;;;;;;;;;;;;;4389428;32;19944;-74
2023/02/15 15:07:58;;;;;;;;;;;;;;;;;;4390361;32;19933;-74
2023/02/15 15:10:25;;;;;;;;;;;;;;;;;;4392862;32;19950;-73
2023/02/15 15:12:50;;;;;;;;;;;;;;;;;;4390408;32;19960;-76
2023/02/15 15:15:15;;;;;;;;;;;;;;;;;;4388916;32;19934;-73
2023/02/15 15:17:40;;;;;;;;;;;;;;;;;;4385914;32;19946;-72
2023/02/15 15:20:13;;;;;;;;;;;;;;;;;;4391436;32;19942;-73
2023/02/15 15:22:38;;;;;;;;;;;;;;;;;;4391203;32;19992;-72
2023/02/15 15:25:03;;;;;;;;;;;;;;;;;;4390243;32;19950;-74
2023/02/15 15:27:28;;;;;;;;;;;;;;;;;;4393101;32;20332;-73
2023/02/15 15:29:54;;;;;;;;;;;;;;;;;;4398766;32;19994;-73
2023/02/15 15:32:19;;;;;;;;;;;;;;;;;;4394619;32;20033;-74
2023/02/15 15:34:44;;;;;;;;;;;;;;;;;;4390325;32;19981;-73
2023/02/15 15:37:09;;;;;;;;;;;;;;;;;;4390609;32;19996;-73
2023/02/15 15:39:34;;;;;;;;;;;;;;;;;;4391760;32;20692;-74
2023/02/15 15:41:59;;;;;;;;;;;;;;;;;;4388692;32;19942;-74
2023/02/15 15:44:25;;;;;;;;;;;;;;;;;;4390321;32;19962;-74
2023/02/15 15:46:50;;;;;;;;;;;;;;;;;;4389864;32;20757;-75
2023/02/15 15:49:17;;;;;;;;;;;;;;;;;;4389533;32;19946;-75
2023/02/15 15:51:42;;;;;;;;;;;;;;;;;;4389404;32;19996;-74
2023/02/15 15:54:07;;;;;;;;;;;;;;;;;;4390549;32;19950;-74
2023/02/15 15:56:32;;;;;;;;;;;;;;;;;;4390131;32;19974;-74
2023/02/15 15:58:58;;;;;;;;;;;;;;;;;;4392035;32;19967;-74
2023/02/15 16:01:23;;;;;;;;;;;;;;;;;;4388975;32;19961;-73
2023/02/15 16:03:48;;;;;;;;;;;;;;;;;;4391107;32;19941;-74
2023/02/15 16:06:13;;;;;;;;;;;;;;;;;;4390064;32;19972;-73
2023/02/15 16:08:38;;;;;;;;;;;;;;;;;;4390057;32;19990;-74
2023/02/15 16:11:03;;;;;;;;;;;;;;;;;;4389695;32;19946;-74
2023/02/15 16:13:28;;;;;;;;;;;;;;;;;;4389689;32;20357;-74
2023/02/15 16:15:53;;;;;;;;;;;;;;;;;;4388779;32;19972;-72
2023/02/15 16:18:18;;;;;;;;;;;;;;;;;;4390606;32;20290;-74
2023/02/15 16:20:44;;;;;;;;;;;;;;;;;;4388649;32;19949;-74
2023/02/15 16:23:09;;;;;;;;;;;;;;;;;;4390384;32;19952;-74
2023/02/15 16:25:34;;;;;;;;;;;;;;;;;;4390556;32;19954;-74
2023/02/15 16:27:59;;;;;;;;;;;;;;;;;;4390141;32;19949;-73
2023/02/15 16:30:24;;;;;;;;;;;;;;;;;;4389922;32;20025;-73
2023/02/15 16:32:49;;;;;;;;;;;;;;;;;;4389298;32;20003;-73
2023/02/15 16:35:14;;;;;;;;;;;;;;;;;;4391536;32;19971;-74
2023/02/15 16:37:39;;;;;;;;;;;;;;;;;;4392840;32;19933;-73
2023/02/15 16:40:04;;;;;;;;;;;;;;;;;;4391096;32;19941;-74
2023/02/15 16:42:29;;;;;;;;;;;;;;;;;;4393323;32;19989;-73
2023/02/15 16:44:54;;;;;;;;;;;;;;;;;;4392981;32;20319;-73
2023/02/15 16:47:20;;;;;;;;;;;;;;;;;;4394036;32;19952;-74
2023/02/15 16:49:45;;;;;;;;;;;;;;;;;;4393194;32;19938;-73
2023/02/15 16:52:10;;;;;;;;;;;;;;;;;;4392430;32;20087;-73
2023/02/15 16:54:36;;;;;;;;;;;;;;;;;;4392802;32;19933;-73
2023/02/15 16:57:01;;;;;;;;;;;;;;;;;;4406194;32;19949;-73
2023/02/15 16:59:26;;;;;;;;;;;;;;;;;;4408102;32;20259;-73